createdAt,value
2019-01-03T00:01:50.990Z,52.70
2019-01-03T00:04:36.987Z,52.70
2019-01-03T00:07:38.494Z,52.60
2019-01-03T00:10:33.901Z,52.90
2019-01-03T00:13:41.390Z,52.70
2019-01-03T00:16:39.861Z,52.70
2019-01-03T00:19:27.882Z,52.40
2019-01-03T00:22:15.902Z,52.40
2019-01-03T00:25:03.924Z,52.90
2019-01-03T00:28:02.148Z,53.30
2019-01-03T00:30:57.632Z,53.60
2019-01-03T00:33:53.079Z,54.10
2019-01-03T00:36:48.436Z,54.80
2019-01-03T00:39:38.746Z,55.20
2019-01-03T00:42:21.494Z,55.60
2019-01-03T00:45:09.466Z,55.30
2019-01-03T00:48:10.750Z,55.60
2019-01-03T00:50:54.481Z,56.40
2019-01-03T00:54:01.950Z,56.40
2019-01-03T00:56:51.590Z,56.40
2019-01-03T00:59:41.199Z,56.90
2019-01-03T01:02:24.595Z,57.00
2019-01-03T01:05:26.054Z,57.60
2019-01-03T01:08:15.634Z,57.20
2019-01-03T01:11:07.816Z,57.30
2019-01-03T01:13:56.141Z,57.00
2019-01-03T01:16:44.173Z,57.50
2019-01-03T01:19:39.534Z,57.80
2019-01-03T01:22:28.963Z,57.90
2019-01-03T01:25:18.507Z,58.00
2019-01-03T01:28:19.413Z,58.50
2019-01-03T01:31:07.486Z,58.40
2019-01-03T01:34:04.806Z,58.70
2019-01-03T01:37:00.140Z,58.20
2019-01-03T01:39:48.224Z,58.30
2019-01-03T01:42:36.446Z,58.70
2019-01-03T01:45:24.374Z,58.60
2019-01-03T01:48:13.710Z,58.20
2019-01-03T01:51:01.552Z,58.40
2019-01-03T01:53:51.217Z,58.40
2019-01-03T01:56:49.690Z,58.40
2019-01-03T01:59:39.473Z,58.00
2019-01-03T02:02:27.237Z,58.30
2019-01-03T02:05:19.988Z,57.90
2019-01-03T02:08:09.677Z,58.20
2019-01-03T02:11:02.282Z,58.80
2019-01-03T02:13:53.936Z,58.20
2019-01-03T02:16:55.372Z,58.50
2019-01-03T02:19:47.280Z,58.50
2019-01-03T02:22:42.465Z,58.00
2019-01-03T02:25:40.963Z,57.60
2019-01-03T02:28:28.903Z,57.90
2019-01-03T02:31:17.181Z,58.10
2019-01-03T02:34:24.672Z,58.50
2019-01-03T02:37:12.852Z,57.90
2019-01-03T02:40:08.422Z,58.60
2019-01-03T02:42:56.279Z,57.60
2019-01-03T02:45:57.605Z,58.30
2019-01-03T02:48:58.691Z,58.40
2019-01-03T02:51:53.823Z,58.40
2019-01-03T02:54:52.497Z,58.50
2019-01-03T02:57:54.257Z,58.00
2019-01-03T03:00:42.330Z,57.90
2019-01-03T03:03:46.847Z,58.00
2019-01-03T03:06:32.350Z,58.00
2019-01-03T03:09:20.887Z,57.70
2019-01-03T03:12:05.664Z,57.70
2019-01-03T03:14:47.750Z,57.70
2019-01-03T03:17:35.850Z,58.10
2019-01-03T03:20:29.185Z,57.90
2019-01-03T03:23:17.253Z,58.20
2019-01-03T03:26:05.393Z,57.60
2019-01-03T03:28:54.872Z,57.80
2019-01-03T03:31:59.608Z,57.50
2019-01-03T03:34:58.273Z,57.70
2019-01-03T03:38:05.545Z,57.90
2019-01-03T03:40:53.380Z,58.00
2019-01-03T03:43:41.853Z,57.20
2019-01-03T03:46:29.889Z,58.00
2019-01-03T03:49:25.630Z,57.50
2019-01-03T03:52:29.940Z,56.50
2019-01-03T03:55:18.827Z,56.80
2019-01-03T03:58:20.304Z,57.00
2019-01-03T04:01:08.124Z,57.70
2019-01-03T04:04:03.853Z,57.60
2019-01-03T04:06:52.075Z,57.50
2019-01-03T04:09:39.424Z,57.30
2019-01-03T04:12:41.116Z,56.90
2019-01-03T04:15:36.770Z,57.50
2019-01-03T04:18:21.633Z,57.40
2019-01-03T04:21:17.227Z,57.60
2019-01-03T04:24:24.541Z,57.50
2019-01-03T04:27:12.378Z,56.50
2019-01-03T04:30:00.663Z,57.50
2019-01-03T04:32:48.729Z,58.40
2019-01-03T04:35:36.848Z,58.80
2019-01-03T04:38:24.665Z,58.80
2019-01-03T04:41:08.295Z,59.00
2019-01-03T04:44:05.472Z,59.50
2019-01-03T04:46:53.528Z,58.80
2019-01-03T04:49:48.903Z,59.40
2019-01-03T04:52:47.540Z,59.90
2019-01-03T04:55:35.806Z,59.70
2019-01-03T04:58:23.613Z,60.20
2019-01-03T05:02:32.693Z,61.10
2019-01-03T05:05:17.303Z,61.00
2019-01-03T05:08:07.500Z,60.90
2019-01-03T05:11:06.223Z,61.20
2019-01-03T05:14:04.818Z,61.50
2019-01-03T05:17:12.080Z,61.60
2019-01-03T05:19:59.803Z,61.30
2019-01-03T05:23:02.806Z,61.90
2019-01-03T05:25:55.760Z,61.90
2019-01-03T05:28:55.302Z,61.90
2019-01-03T05:31:55.296Z,62.20
2019-01-03T05:34:43.098Z,62.60
2019-01-03T05:37:38.505Z,62.50
2019-01-03T05:40:26.611Z,62.60
2019-01-03T05:43:14.453Z,62.60
2019-01-03T05:46:02.573Z,62.00
2019-01-03T05:48:50.769Z,62.00
2019-01-03T05:51:38.776Z,61.40
2019-01-03T05:54:21.257Z,61.50
2019-01-03T05:57:22.620Z,61.50
2019-01-03T06:00:10.606Z,61.50
2019-01-03T06:03:08.893Z,61.70
2019-01-03T06:05:49.625Z,62.10
2019-01-03T06:08:37.491Z,61.70
2019-01-03T06:11:41.858Z,61.90
2019-01-03T06:14:40.943Z,61.50
2019-01-03T06:17:28.854Z,61.40
2019-01-03T06:20:16.899Z,61.60
2019-01-03T06:23:24.498Z,61.50
2019-01-03T06:26:17.658Z,61.10
2019-01-03T06:29:10.272Z,61.20
2019-01-03T06:32:07.473Z,60.80
2019-01-03T06:35:14.954Z,61.10
2019-01-03T06:38:10.395Z,61.00
2019-01-03T06:40:59.373Z,60.70
2019-01-03T06:43:54.667Z,61.00
2019-01-03T06:46:42.410Z,61.40
2019-01-03T06:49:30.674Z,61.50
2019-01-03T06:52:12.751Z,61.80
2019-01-03T06:55:00.808Z,62.20
2019-01-03T06:57:50.878Z,62.40
2019-01-03T07:00:38.895Z,62.30
2019-01-03T07:03:27.063Z,62.90
2019-01-03T07:06:22.936Z,63.20
2019-01-03T07:09:12.078Z,63.30
2019-01-03T07:12:00.312Z,63.00
2019-01-03T07:14:56.329Z,62.90
2019-01-03T07:17:55.104Z,63.30
2019-01-03T07:20:41.839Z,63.50
2019-01-03T07:23:49.253Z,64.00
2019-01-03T07:26:41.680Z,64.00
2019-01-03T07:29:43.743Z,64.20
2019-01-03T07:32:38.125Z,64.10
2019-01-03T07:35:26.279Z,63.60
2019-01-03T07:38:16.320Z,62.60
2019-01-03T07:41:04.691Z,62.00
2019-01-03T07:43:55.523Z,62.00
2019-01-03T07:46:43.962Z,61.80
2019-01-03T07:49:32.346Z,61.80
2019-01-03T07:52:31.501Z,61.50
2019-01-03T07:55:28.237Z,61.40
2019-01-03T07:58:37.738Z,61.60
2019-01-03T08:01:51.150Z,60.70
2019-01-03T08:05:03.217Z,61.20
2019-01-03T08:07:55.238Z,61.10
2019-01-03T08:10:43.994Z,60.30
2019-01-03T08:13:51.329Z,59.50
2019-01-03T08:17:59.302Z,59.40
2019-01-03T08:20:47.685Z,58.40
2019-01-03T08:23:57.317Z,59.10
2019-01-03T08:26:55.912Z,59.50
2019-01-03T08:29:46.587Z,58.40
2019-01-03T08:32:34.331Z,58.50
2019-01-03T08:35:22.189Z,58.30
2019-01-03T08:38:14.098Z,58.10
2019-01-03T08:41:03.981Z,58.00
2019-01-03T08:43:54.296Z,57.60
2019-01-03T08:46:42.195Z,56.20
2019-01-03T08:49:29.948Z,57.10
2019-01-03T08:52:28.389Z,57.90
2019-01-03T08:55:16.698Z,57.40
2019-01-03T08:58:18.485Z,57.90
2019-01-03T09:01:04.511Z,59.10
2019-01-03T09:03:56.757Z,59.20
2019-01-03T09:06:44.956Z,59.20
2019-01-03T09:09:40.178Z,59.70
2019-01-03T09:12:32.153Z,59.90
2019-01-03T09:15:27.417Z,59.30
2019-01-03T09:18:15.590Z,59.10
2019-01-03T09:21:04.629Z,58.90
2019-01-03T09:23:52.393Z,59.00
2019-01-03T09:26:49.874Z,58.10
2019-01-03T09:30:25.286Z,57.90
2019-01-03T09:34:57.567Z,57.80
2019-01-03T09:36:47.997Z,57.70
2019-01-03T09:39:46.695Z,56.70
2019-01-03T09:43:03.079Z,56.70
2019-01-03T09:45:43.823Z,56.30
2019-01-03T09:48:05.352Z,56.70
2019-01-03T09:50:38.481Z,56.70
2019-01-03T09:53:08.731Z,55.60
2019-01-03T09:55:38.610Z,55.40
2019-01-03T09:58:08.453Z,55.40
2019-01-03T10:00:38.955Z,55.50
2019-01-03T10:03:09.323Z,54.80
2019-01-03T10:05:39.459Z,55.40
2019-01-03T10:08:09.601Z,54.70
2019-01-03T10:10:39.742Z,54.80
2019-01-03T10:13:09.942Z,54.40
2019-01-03T10:15:40.203Z,53.70
2019-01-03T10:18:10.478Z,53.50
2019-01-03T10:20:40.871Z,52.40
2019-01-03T10:23:11.303Z,52.80
2019-01-03T10:25:42.051Z,52.30
2019-01-03T10:28:12.306Z,51.80
2019-01-03T10:30:43.293Z,51.50
2019-01-03T10:33:13.292Z,50.70
2019-01-03T10:35:43.460Z,50.00
2019-01-03T10:38:13.712Z,50.00
2019-01-03T10:40:43.906Z,49.90
2019-01-03T10:43:14.989Z,49.90
2019-01-03T10:45:45.625Z,49.90
2019-01-03T10:48:53.038Z,50.00
2019-01-03T10:51:22.541Z,50.30
2019-01-03T10:53:53.196Z,50.20
2019-01-03T10:56:23.416Z,50.40
2019-01-03T10:58:53.715Z,49.90
2019-01-03T11:01:23.625Z,49.60
2019-01-03T11:03:54.043Z,49.70
2019-01-03T11:06:23.925Z,50.10
2019-01-03T11:08:54.840Z,48.80
2019-01-03T11:11:25.049Z,48.90
2019-01-03T11:13:56.906Z,49.10
2019-01-03T11:16:28.375Z,47.90
2019-01-03T11:19:00.167Z,47.70
2019-01-03T11:21:31.642Z,46.70
2019-01-03T11:24:03.383Z,46.40
2019-01-03T11:26:34.947Z,46.00
2019-01-03T11:29:06.736Z,47.00
2019-01-03T11:31:36.873Z,47.20
2019-01-03T11:34:06.852Z,45.70
2019-01-03T11:36:36.762Z,46.20
2019-01-03T11:39:07.406Z,46.10
2019-01-03T11:41:37.787Z,46.40
2019-01-03T11:44:09.412Z,45.80
2019-01-03T11:46:40.005Z,45.90
2019-01-03T11:49:09.873Z,46.40
2019-01-03T11:51:40.145Z,45.30
2019-01-03T11:54:10.158Z,45.60
2019-01-03T11:56:40.289Z,46.20
2019-01-03T11:59:10.341Z,45.60
2019-01-03T12:01:40.779Z,45.80
2019-01-03T12:04:11.064Z,45.60
2019-01-03T12:06:41.512Z,46.50
2019-01-03T12:09:11.742Z,46.00
2019-01-03T12:11:41.750Z,45.40
2019-01-03T12:14:11.906Z,46.40
2019-01-03T12:16:41.955Z,46.00
2019-01-03T12:19:12.163Z,45.80
2019-01-03T12:21:42.071Z,45.80
2019-01-03T12:24:12.009Z,45.70
2019-01-03T12:26:42.091Z,45.90
2019-01-03T12:29:12.088Z,47.50
2019-01-03T12:31:42.254Z,47.60
2019-01-03T12:34:12.089Z,47.60
2019-01-03T12:36:42.052Z,48.10
2019-01-03T12:39:12.287Z,47.80
2019-01-03T12:41:42.677Z,47.80
2019-01-03T12:44:15.220Z,48.30
2019-01-03T12:46:45.164Z,48.60
2019-01-03T12:49:15.258Z,49.10
2019-01-03T12:51:45.313Z,48.00
2019-01-03T12:54:15.301Z,48.30
2019-01-03T12:56:45.219Z,48.30
2019-01-03T12:59:15.109Z,48.80
2019-01-03T13:01:45.131Z,48.80
2019-01-03T13:04:15.897Z,48.50
2019-01-03T13:06:45.938Z,48.80
2019-01-03T13:09:19.589Z,49.40
2019-01-03T13:11:49.591Z,49.50
2019-01-03T13:14:19.529Z,50.80
2019-01-03T13:16:50.296Z,52.30
2019-01-03T13:19:20.368Z,53.60
2019-01-03T13:21:50.287Z,54.60
2019-01-03T13:24:20.425Z,55.20
2019-01-03T13:26:50.533Z,55.70
2019-01-03T13:29:20.432Z,57.30
2019-01-03T13:31:50.496Z,57.90
2019-01-03T13:34:20.547Z,59.40
2019-01-03T13:36:50.472Z,60.10
2019-01-03T13:39:20.582Z,61.50
2019-01-03T13:41:50.596Z,62.10
2019-01-03T13:44:20.559Z,62.20
2019-01-03T13:46:50.674Z,62.90
2019-01-03T13:49:20.682Z,63.30
2019-01-03T13:51:50.651Z,63.60
2019-01-03T13:54:20.788Z,65.20
2019-01-03T13:56:51.219Z,65.80
2019-01-03T13:59:21.300Z,66.60
2019-01-03T14:01:51.411Z,68.40
2019-01-03T14:04:21.672Z,70.20
2019-01-03T14:06:51.636Z,69.40
2019-01-03T14:09:22.556Z,70.90
2019-01-03T14:11:53.156Z,71.00
2019-01-03T14:14:23.186Z,71.10
2019-01-03T14:16:53.119Z,71.80
2019-01-03T14:41:00.105Z,82.50
2019-01-03T15:19:12.094Z,84.70
2019-01-03T15:21:47.333Z,86.80
2019-01-03T15:25:59.776Z,87.40
2019-01-03T15:27:09.088Z,88.40
2019-01-03T15:29:40.327Z,88.40
2019-01-03T15:32:12.590Z,88.80
2019-01-03T15:34:54.324Z,89.00
2019-01-03T15:37:24.591Z,89.90
2019-01-03T15:39:56.847Z,90.50
2019-01-03T15:42:26.842Z,90.90
2019-01-03T15:44:56.945Z,91.30
2019-01-03T15:48:12.821Z,91.30
2019-01-03T15:53:49.849Z,90.90
2019-01-03T15:56:48.363Z,90.50
2019-01-03T15:59:19.765Z,90.10
2019-01-03T16:02:37.713Z,86.60
2019-01-03T16:05:08.330Z,87.70
2019-01-03T16:07:39.739Z,89.40
2019-01-03T16:10:09.878Z,88.80
2019-01-03T16:12:40.663Z,88.00
2019-01-03T16:19:02.091Z,87.00
2019-01-03T16:23:06.974Z,86.90
2019-01-03T16:25:47.936Z,85.70
2019-01-03T16:29:59.957Z,87.00
2019-01-03T16:37:37.318Z,86.80
2019-01-03T16:40:23.577Z,87.80
2019-01-03T16:43:22.706Z,85.90
2019-01-03T16:46:14.172Z,86.80
2019-01-03T16:48:50.714Z,87.20
2019-01-03T16:53:37.244Z,86.90
2019-01-03T16:54:33.933Z,87.10
2019-01-03T16:57:57.429Z,87.10
2019-01-03T17:00:32.893Z,88.30
2019-01-03T17:03:11.977Z,88.10
2019-01-03T17:06:25.335Z,89.00
2019-01-03T17:14:58.579Z,89.40
2019-01-03T17:33:55.110Z,89.40
2019-01-03T17:49:49.913Z,89.50
2019-01-03T17:52:27.673Z,88.90
2019-01-03T17:55:01.286Z,89.00
2019-01-03T17:57:32.457Z,88.70
2019-01-03T18:02:45.296Z,87.70
2019-01-03T18:05:26.318Z,86.20
2019-01-03T18:16:07.600Z,86.60
2019-01-03T18:18:45.933Z,86.90
2019-01-03T18:21:18.309Z,86.80
2019-01-03T18:23:52.642Z,87.60
2019-01-03T18:26:24.872Z,88.30
2019-01-03T18:29:10.354Z,88.20
2019-01-03T18:31:38.614Z,88.70
2019-01-03T18:35:37.255Z,88.90
2019-01-03T18:46:37.459Z,88.10
2019-01-03T18:49:08.115Z,88.70
2019-01-03T18:51:45.525Z,88.90
2019-01-03T18:55:55.505Z,88.20
2019-01-03T18:58:37.348Z,87.50
2019-01-03T19:01:11.750Z,87.50
2019-01-03T19:06:38.163Z,87.60
2019-01-03T19:09:31.491Z,88.00
2019-01-03T19:12:01.898Z,88.00
2019-01-03T19:14:31.777Z,88.60
2019-01-03T19:17:02.686Z,89.10
2019-01-03T19:19:47.818Z,89.60
2019-01-03T19:22:18.318Z,90.20
2019-01-03T19:24:48.196Z,90.70
2019-01-03T19:27:20.014Z,91.10
2019-01-03T19:29:52.979Z,91.50
2019-01-03T19:32:25.825Z,91.60
2019-01-03T19:34:55.972Z,92.00
2019-01-03T19:37:26.278Z,92.30
2019-01-03T19:39:57.256Z,92.50
2019-01-03T19:42:27.171Z,92.70
2019-01-03T19:44:57.379Z,92.90
2019-01-03T19:47:30.536Z,93.00
2019-01-03T19:50:01.613Z,93.20
2019-01-03T19:52:32.173Z,93.40
2019-01-03T19:55:02.360Z,93.40
2019-01-03T19:57:32.664Z,93.50
2019-01-03T20:00:03.011Z,93.50
2019-01-03T20:02:34.188Z,93.40
2019-01-03T20:05:04.465Z,93.50
2019-01-03T20:07:34.669Z,93.50
2019-01-03T20:10:07.506Z,93.40
2019-01-03T20:12:37.404Z,93.40
2019-01-03T20:15:10.533Z,93.40
2019-01-03T20:17:40.656Z,93.40
2019-01-03T20:20:11.443Z,93.40
2019-01-03T20:22:41.437Z,93.40
2019-01-03T20:25:11.409Z,93.40
2019-01-03T20:27:41.491Z,92.80
2019-01-03T20:30:11.598Z,92.70
2019-01-03T20:32:41.545Z,92.80
2019-01-03T20:35:13.266Z,93.00
2019-01-03T20:37:43.335Z,93.00
2019-01-03T20:40:14.599Z,92.70
2019-01-03T20:42:45.420Z,91.90
2019-01-03T20:45:15.850Z,92.10
2019-01-03T20:47:45.770Z,91.90
2019-01-03T20:50:15.661Z,91.80
2019-01-03T20:52:45.657Z,92.40
2019-01-03T20:55:15.560Z,92.80
2019-01-03T20:57:47.066Z,93.10
2019-01-03T21:00:17.001Z,93.30
2019-01-03T21:02:47.104Z,93.70
2019-01-03T21:05:17.768Z,94.30
2019-01-03T21:07:49.005Z,94.70
2019-01-03T21:10:19.332Z,95.00
2019-01-03T21:12:49.301Z,95.20
2019-01-03T21:15:19.577Z,95.20
2019-01-03T21:17:49.533Z,95.20
2019-01-03T21:20:19.425Z,95.20
2019-01-03T21:22:49.479Z,95.20
2019-01-03T21:25:19.360Z,95.20
2019-01-03T21:28:07.193Z,95.30
2019-01-03T21:30:29.038Z,95.40
2019-01-03T21:32:59.060Z,95.20
2019-01-03T21:35:28.991Z,95.30
2019-01-03T21:37:59.083Z,95.30
2019-01-03T21:40:29.117Z,95.30
2019-01-03T21:42:59.045Z,94.20
2019-01-03T21:45:28.972Z,94.40
2019-01-03T21:48:08.362Z,94.20
2019-01-03T21:50:38.363Z,94.30
2019-01-03T21:53:08.332Z,94.20
2019-01-03T21:55:41.049Z,93.30
2019-01-03T21:58:11.128Z,93.40
2019-01-03T22:00:41.251Z,93.40
2019-01-03T22:03:12.158Z,93.20
2019-01-03T22:05:42.222Z,92.50
2019-01-03T22:08:12.372Z,92.40
2019-01-03T22:10:42.362Z,92.50
2019-01-03T22:13:12.254Z,92.70
2019-01-03T22:15:43.429Z,93.00
2019-01-03T22:18:13.435Z,93.00
2019-01-03T22:20:43.330Z,92.80
2019-01-03T22:23:13.411Z,92.60
2019-01-03T22:25:43.431Z,92.20
2019-01-03T22:28:13.349Z,92.10
2019-01-03T22:30:44.774Z,91.90
2019-01-03T22:39:02.234Z,92.50
2019-01-03T22:41:35.275Z,91.90
2019-01-03T22:44:18.567Z,91.50
2019-01-03T22:46:48.731Z,91.60
2019-01-03T22:49:18.679Z,91.40
2019-01-03T22:51:49.072Z,91.50
2019-01-03T22:54:19.224Z,91.40
2019-01-03T22:56:49.425Z,91.60
2019-01-03T22:59:19.372Z,91.60
2019-01-03T23:01:49.574Z,91.60
2019-01-03T23:04:20.672Z,90.90
2019-01-03T23:06:50.744Z,90.30
2019-01-03T23:09:21.298Z,90.50
2019-01-03T23:11:51.349Z,90.70
2019-01-03T23:14:21.295Z,90.90
2019-01-03T23:16:52.202Z,90.70
2019-01-03T23:19:22.159Z,90.60
2019-01-03T23:21:52.102Z,90.90
2019-01-03T23:24:22.738Z,91.30
2019-01-03T23:26:53.037Z,91.50
2019-01-03T23:29:23.611Z,91.50
2019-01-03T23:31:53.950Z,90.90
2019-01-03T23:34:28.109Z,90.70
2019-01-03T23:36:56.194Z,90.70
2019-01-03T23:39:26.513Z,90.70
2019-01-03T23:41:56.796Z,90.90
2019-01-03T23:44:26.915Z,91.10
2019-01-03T23:46:57.100Z,91.10
2019-01-03T23:49:27.079Z,91.30
2019-01-03T23:51:57.070Z,91.10
2019-01-03T23:54:27.549Z,90.30
2019-01-03T23:56:57.891Z,90.80
2019-01-03T23:59:28.274Z,90.50
